KCGF/CGF METAR and TAF weather

Enter ICAO airport designator
Station Type Date Time Source
KCGF METAR 2019/12/13 13:45 UTC NOAA

KCGF 131345Z 17011G19KT 10SM FEW150 01/M07 A3012


Station Type Date Time Source
KCGF Decoded METAR 2019/12/13 13:45 UTC NOAA

Cleveland / Cuyahoga, OH, United States (KCGF) 41-34N 081-29W
Dec 13, 2019 - 08:45 AM EST / 2019.12.13 1345 UTC
Wind: from the S (170 degrees) at 13 MPH (11 KT) gusting to 22 MPH (19 KT):0
Visibility: 10 mile(s):0
Sky conditions: mostly clear
Temperature: 33 F (1 C)
Windchill: 23 F (-5 C):1
Dew Point: 19 F (-7 C)
Relative Humidity: 55%
Pressure (altimeter): 30.12 in. Hg (1019 hPa)
ob: KCGF 131345Z 17011G19KT 10SM FEW150 01/M07 A3012
cycle: 14

Station Type Date Time Source
KCGF TAF 2016/07/19 12:36 UTC NOAA

TAF KCGF 191136Z 1912/2012 VRB05KT P6SM SCT080
FM191400 33008KT P6SM SCT040
FM191900 35008KT P6SM SCT060
FM200000 04003KT P6SM SCT080
FM200700 14003KT P6SM SKC

Example: see airport list